Time;durP1;ratioP1;P1;durP2;ratioP2;P2;SDS_P1;SDS_P2;PMS_P1;PMS_P2;Temp;Humidity;BMP_temperature;BMP_pressure;BME280_temperature;BME280_humidity;BME280_pressure;Samples;Min_cycle;Max_cycle;Signal;HPM_P1;HPM_P2
2022/04/09 00:00:46;;;;;;;2.43;1.47;;;16.10;57.50;;;;;;5053681;28;20339;-89
2022/04/09 00:03:12;;;;;;;3.00;1.30;;;16.10;57.50;;;;;;5052723;28;20176;-89
2022/04/09 00:05:38;;;;;;;5.73;1.90;;;16.10;57.50;;;;;;5053039;28;20169;-89
2022/04/09 00:08:04;;;;;;;3.07;1.63;;;16.10;57.50;;;;;;5056303;28;20710;-89
2022/04/09 00:10:30;;;;;;;2.83;1.57;;;16.10;57.40;;;;;;5055200;28;20168;-89
2022/04/09 00:12:55;;;;;;;3.10;1.67;;;16.10;57.40;;;;;;5056688;28;20213;-90
2022/04/09 00:15:21;;;;;;;2.90;1.70;;;16.10;57.40;;;;;;5052814;28;20406;-89
2022/04/09 00:17:47;;;;;;;3.27;1.80;;;16.10;57.40;;;;;;5055093;28;20176;-90
2022/04/09 00:20:15;;;;;;;2.70;1.53;;;16.10;57.40;;;;;;5056007;28;20205;-89
2022/04/09 00:22:41;;;;;;;2.83;1.67;;;16.10;57.40;;;;;;5055434;28;20271;-89
2022/04/09 00:25:13;;;;;;;2.20;1.60;;;16.10;57.30;;;;;;5055712;28;20169;-90
2022/04/09 00:27:39;;;;;;;3.27;1.43;;;16.10;57.30;;;;;;5057195;28;20457;-89
2022/04/09 00:30:08;;;;;;;3.37;1.73;;;16.10;57.20;;;;;;5055362;28;20272;-90
2022/04/09 00:32:34;;;;;;;3.20;1.40;;;16.00;57.20;;;;;;5056312;28;20528;-90
2022/04/09 00:35:01;;;;;;;2.30;1.60;;;16.10;57.30;;;;;;5055421;28;20172;-89
2022/04/09 00:37:27;;;;;;;2.10;1.53;;;16.10;57.20;;;;;;5057464;28;20172;-90
2022/04/09 00:39:53;;;;;;;3.87;1.90;;;16.10;57.20;;;;;;5056707;28;20208;-90
2022/04/09 00:42:20;;;;;;;3.00;1.60;;;16.00;57.20;;;;;;5056900;28;20226;-90
2022/04/09 00:44:46;;;;;;;3.43;1.87;;;16.10;57.30;;;;;;5056685;28;20168;-90
2022/04/09 00:47:12;;;;;;;3.67;1.90;;;16.10;57.30;;;;;;5056290;28;20169;-90
2022/04/09 00:49:39;;;;;;;2.40;1.47;;;16.10;57.20;;;;;;5055611;28;20466;-90
2022/04/09 00:52:07;;;;;;;2.80;1.47;;;16.10;57.20;;;;;;5055752;28;20204;-90
2022/04/09 00:54:38;;;;;;;2.73;1.60;;;16.00;57.20;;;;;;5056320;28;20180;-90
2022/04/09 00:57:06;;;;;;;3.00;1.60;;;16.00;57.20;;;;;;5055854;28;20185;-90
2022/04/09 00:59:35;;;;;;;3.17;1.77;;;16.00;57.20;;;;;;5054473;28;20219;-90
2022/04/09 01:02:02;;;;;;;3.40;1.60;;;16.00;57.40;;;;;;5055769;28;20169;-90
2022/04/09 01:04:29;;;;;;;3.00;1.53;;;16.00;57.20;;;;;;5057099;28;20175;-90
2022/04/09 01:06:56;;;;;;;3.67;1.60;;;16.00;57.20;;;;;;5056276;28;20177;-90
2022/04/09 01:09:22;;;;;;;3.07;1.50;;;16.00;57.20;;;;;;5056221;28;20186;-90
2022/04/09 01:11:49;;;;;;;2.73;1.60;;;16.00;57.20;;;;;;5055346;28;20173;-90
2022/04/09 01:14:15;;;;;;;2.53;1.43;;;16.00;57.20;;;;;;5056107;28;20238;-90
2022/04/09 01:16:40;;;;;;;2.20;1.50;;;16.00;57.20;;;;;;5056000;28;20184;-90
2022/04/09 01:19:06;;;;;;;3.20;1.60;;;16.00;57.20;;;;;;5054355;28;20215;-90
2022/04/09 01:21:32;;;;;;;2.33;1.50;;;16.00;57.10;;;;;;5055618;28;20242;-91
2022/04/09 01:23:59;;;;;;;4.53;1.40;;;16.00;57.10;;;;;;5055187;28;20523;-90
2022/04/09 01:26:26;;;;;;;2.97;1.70;;;16.00;57.10;;;;;;5055649;28;20173;-90
2022/04/09 01:28:52;;;;;;;2.20;1.40;;;16.00;57.10;;;;;;5055349;28;20176;-91
2022/04/09 01:31:18;;;;;;;3.67;1.70;;;16.00;57.10;;;;;;5054872;28;20660;-90
2022/04/09 01:33:44;;;;;;;2.90;1.70;;;16.00;57.10;;;;;;5054323;28;20556;-90
2022/04/09 01:36:10;;;;;;;2.23;1.50;;;16.00;57.10;;;;;;5054067;28;20418;-90
2022/04/09 01:38:37;;;;;;;3.27;2.03;;;16.00;57.00;;;;;;5052373;28;20200;-90
2022/04/09 01:41:03;;;;;;;4.93;1.90;;;15.90;57.00;;;;;;5053917;28;20524;-90
2022/04/09 01:43:30;;;;;;;2.87;1.53;;;15.90;57.00;;;;;;5054172;28;20175;-91
2022/04/09 01:45:55;;;;;;;3.23;1.60;;;15.90;57.00;;;;;;5055473;28;20222;-90
2022/04/09 01:48:21;;;;;;;2.87;1.40;;;15.90;57.00;;;;;;5055358;28;20223;-91
2022/04/09 01:50:47;;;;;;;2.93;1.70;;;15.90;57.00;;;;;;5053986;28;20183;-90
2022/04/09 01:53:14;;;;;;;2.93;1.53;;;15.90;57.00;;;;;;5055059;28;20534;-90
2022/04/09 01:55:39;;;;;;;2.57;1.60;;;15.90;57.00;;;;;;5055240;28;20168;-91
2022/04/09 01:58:06;;;;;;;3.20;1.67;;;15.90;56.90;;;;;;5055560;28;20287;-90
2022/04/09 02:00:32;;;;;;;3.47;1.37;;;15.90;56.90;;;;;;5054078;28;20219;-90
2022/04/09 02:02:58;;;;;;;2.37;1.57;;;15.90;56.80;;;;;;5055200;28;20188;-90
2022/04/09 02:05:25;;;;;;;2.03;1.30;;;15.90;56.80;;;;;;5054834;28;20230;-90
2022/04/09 02:07:51;;;;;;;2.47;1.30;;;15.90;56.90;;;;;;5055241;28;20273;-91
2022/04/09 02:10:18;;;;;;;2.60;1.40;;;15.90;56.80;;;;;;5054090;28;20572;-90
2022/04/09 02:12:45;;;;;;;3.63;1.43;;;15.90;56.80;;;;;;5054545;28;20217;-90
2022/04/09 02:15:13;;;;;;;2.57;1.50;;;15.90;56.70;;;;;;5055162;28;20177;-90
2022/04/09 02:17:41;;;;;;;4.60;1.53;;;15.90;56.70;;;;;;5053700;28;20733;-90
2022/04/09 02:20:09;;;;;;;2.53;1.37;;;15.90;56.70;;;;;;5053748;28;20542;-91
2022/04/09 02:22:36;;;;;;;2.50;1.50;;;15.90;56.60;;;;;;5054680;28;20226;-90
2022/04/09 02:25:08;;;;;;;3.60;1.40;;;15.90;56.60;;;;;;5055066;28;20168;-90
2022/04/09 02:27:34;;;;;;;4.27;1.47;;;15.90;56.50;;;;;;5054700;28;20269;-90
2022/04/09 02:30:01;;;;;;;2.37;1.33;;;15.90;56.50;;;;;;5055538;28;20175;-90
2022/04/09 02:32:27;;;;;;;2.40;1.47;;;15.90;56.50;;;;;;5055200;28;20271;-90
2022/04/09 02:34:54;;;;;;;2.37;1.70;;;16.00;56.50;;;;;;5054330;28;20516;-90
2022/04/09 02:37:20;;;;;;;3.77;1.67;;;15.90;56.60;;;;;;5054850;28;20187;-91
2022/04/09 02:39:46;;;;;;;3.37;1.40;;;15.90;56.40;;;;;;5055349;28;20211;-91
2022/04/09 02:42:13;;;;;;;3.60;1.40;;;15.90;56.30;;;;;;5054839;28;20242;-93
2022/04/09 02:44:39;;;;;;;2.90;1.60;;;15.90;56.30;;;;;;5054199;28;20180;-93
2022/04/09 02:47:05;;;;;;;2.73;1.47;;;15.90;56.30;;;;;;5054572;28;20226;-90
2022/04/09 02:49:31;;;;;;;2.10;1.40;;;15.90;56.30;;;;;;5054759;28;20175;-90
2022/04/09 02:51:57;;;;;;;2.90;1.60;;;15.90;56.20;;;;;;5054024;28;20475;-91
2022/04/09 02:54:23;;;;;;;2.80;1.60;;;15.90;56.20;;;;;;5056009;28;20667;-91
2022/04/09 02:56:48;;;;;;;3.27;1.70;;;15.90;56.20;;;;;;5054426;28;20274;-90
2022/04/09 02:59:15;;;;;;;4.13;1.80;;;15.90;56.20;;;;;;5055223;28;20606;-90
2022/04/09 03:01:46;;;;;;;3.03;1.60;;;15.90;56.20;;;;;;5055666;28;20562;-91
2022/04/09 03:04:13;;;;;;;2.57;1.20;;;15.90;56.20;;;;;;5055586;28;20536;-91
2022/04/09 03:06:39;;;;;;;4.20;1.87;;;15.90;56.20;;;;;;5055514;28;20180;-91
2022/04/09 03:09:05;;;;;;;2.20;1.40;;;15.90;56.10;;;;;;5054703;28;20172;-90
2022/04/09 03:11:31;;;;;;;3.47;1.40;;;15.90;56.10;;;;;;5055083;28;20172;-90
2022/04/09 03:13:57;;;;;;;2.00;1.40;;;15.90;56.10;;;;;;5054896;28;20246;-91
2022/04/09 03:16:23;;;;;;;1.63;1.30;;;15.90;56.10;;;;;;5055666;28;20191;-90
2022/04/09 03:18:49;;;;;;;2.73;1.40;;;15.90;56.10;;;;;;5054713;28;20220;-91
2022/04/09 03:21:16;;;;;;;2.43;1.40;;;15.90;56.00;;;;;;5055587;28;20168;-90
2022/04/09 03:23:41;;;;;;;2.23;1.40;;;15.90;56.00;;;;;;5054727;28;20168;-91
2022/04/09 03:26:07;;;;;;;2.67;1.43;;;15.90;56.00;;;;;;5055205;28;20234;-90
2022/04/09 03:28:33;;;;;;;2.70;1.47;;;15.90;56.00;;;;;;5054373;28;20203;-90
2022/04/09 03:30:59;;;;;;;2.50;1.30;;;15.90;55.90;;;;;;5055137;28;20176;-90
2022/04/09 03:33:25;;;;;;;2.27;1.50;;;15.90;55.90;;;;;;5054485;28;20179;-91
2022/04/09 03:35:52;;;;;;;2.80;1.33;;;15.90;55.90;;;;;;5054561;28;20176;-90
2022/04/09 03:38:18;;;;;;;2.27;1.40;;;15.90;55.80;;;;;;5053666;28;20180;-91
2022/04/09 03:40:44;;;;;;;1.90;1.20;;;15.90;55.80;;;;;;5055207;28;20206;-90
2022/04/09 03:43:10;;;;;;;2.73;1.37;;;15.90;55.80;;;;;;5057363;28;20167;-91
2022/04/09 03:45:36;;;;;;;4.40;1.40;;;15.90;55.80;;;;;;5058167;28;20194;-91
2022/04/09 03:48:02;;;;;;;2.67;1.50;;;15.90;55.70;;;;;;5058941;28;20226;-91
2022/04/09 03:50:28;;;;;;;2.03;1.30;;;15.90;55.70;;;;;;5058262;28;20236;-90
2022/04/09 03:52:54;;;;;;;2.73;1.40;;;15.90;55.70;;;;;;5057963;28;20179;-90
2022/04/09 03:55:20;;;;;;;2.67;1.40;;;15.80;55.70;;;;;;5058409;28;20176;-90
2022/04/09 03:57:46;;;;;;;2.40;1.37;;;15.90;55.70;;;;;;5057952;28;20520;-91
2022/04/09 04:00:14;;;;;;;2.00;1.40;;;15.90;55.70;;;;;;5057511;28;20359;-91
2022/04/09 04:02:40;;;;;;;1.93;1.27;;;15.80;55.60;;;;;;5058830;28;20176;-91
2022/04/09 04:05:07;;;;;;;2.03;1.50;;;15.80;55.60;;;;;;5057490;28;20485;-91
2022/04/09 04:07:34;;;;;;;2.03;1.40;;;15.80;55.60;;;;;;5057915;28;20171;-91
2022/04/09 04:10:13;;;;;;;1.70;1.30;;;15.80;55.60;;;;;;5056814;28;20176;-91
2022/04/09 04:12:43;;;;;;;1.87;1.33;;;15.80;55.60;;;;;;5056800;28;20180;-90
2022/04/09 04:15:09;;;;;;;2.40;1.40;;;15.80;55.60;;;;;;5056411;28;20517;-91
2022/04/09 04:17:40;;;;;;;2.87;1.50;;;15.80;55.60;;;;;;5056037;28;20180;-90
2022/04/09 04:20:07;;;;;;;2.20;1.20;;;15.80;55.60;;;;;;5055863;28;20248;-91
2022/04/09 04:22:33;;;;;;;2.53;1.20;;;15.70;55.50;;;;;;5056632;28;20176;-91
2022/04/09 04:24:58;;;;;;;3.43;1.40;;;15.70;55.60;;;;;;5054505;28;20183;-91
2022/04/09 04:27:24;;;;;;;3.07;1.40;;;15.70;55.60;;;;;;5055887;28;20185;-91
2022/04/09 04:29:50;;;;;;;2.80;1.33;;;15.70;55.70;;;;;;5054855;28;20173;-91
2022/04/09 04:32:15;;;;;;;1.93;1.30;;;15.70;55.60;;;;;;5055407;28;20333;-91
2022/04/09 04:34:41;;;;;;;2.63;1.50;;;15.70;55.60;;;;;;5056597;28;20173;-90
2022/04/09 04:37:07;;;;;;;1.90;1.10;;;15.70;55.60;;;;;;5054956;28;20272;-91
2022/04/09 04:39:33;;;;;;;2.83;1.50;;;15.60;55.60;;;;;;5054873;28;20203;-91
2022/04/09 04:41:59;;;;;;;2.50;1.40;;;15.80;55.40;;;;;;5055215;28;20188;-90
2022/04/09 04:44:24;;;;;;;1.93;1.30;;;16.10;54.80;;;;;;5056071;28;20179;-89
2022/04/09 04:46:50;;;;;;;1.97;1.30;;;16.60;53.70;;;;;;5055311;28;20176;-90
2022/04/09 04:49:16;;;;;;;3.73;1.60;;;17.40;52.00;;;;;;5055766;28;20187;-90
2022/04/09 04:51:42;;;;;;;3.70;1.30;;;18.20;50.40;;;;;;5055100;28;20607;-90
2022/04/09 04:54:07;;;;;;;2.00;1.30;;;19.10;48.70;;;;;;5054015;28;20225;-90
2022/04/09 04:56:33;;;;;;;1.87;1.17;;;19.80;47.30;;;;;;5054925;28;20346;-90
2022/04/09 04:58:59;;;;;;;1.87;1.30;;;20.30;46.40;;;;;;5055339;28;20218;-90
2022/04/09 05:01:31;;;;;;;2.60;1.20;;;20.50;45.90;;;;;;5055121;28;20184;-90
2022/04/09 05:03:56;;;;;;;2.43;1.37;;;20.70;45.40;;;;;;5054840;28;20186;-90
2022/04/09 05:06:22;;;;;;;2.17;1.20;;;20.60;45.20;;;;;;5057989;28;20179;-90
2022/04/09 05:08:58;;;;;;;1.80;1.30;;;20.50;45.20;;;;;;5058082;28;20182;-90
2022/04/09 05:11:24;;;;;;;4.13;1.57;;;20.40;45.30;;;;;;5056271;28;20179;-90
2022/04/09 05:13:50;;;;;;;3.00;1.40;;;20.20;45.40;;;;;;5055156;28;20194;-90
2022/04/09 05:16:15;;;;;;;1.87;1.40;;;20.00;45.70;;;;;;5055506;28;20350;-91
2022/04/09 05:18:41;;;;;;;2.80;1.40;;;19.80;45.90;;;;;;5054385;28;20199;-91
2022/04/09 05:21:07;;;;;;;2.70;1.40;;;19.40;46.20;;;;;;5055266;28;20437;-91
2022/04/09 05:23:32;;;;;;;3.20;1.53;;;19.20;46.60;;;;;;5054550;28;20178;-91
2022/04/09 05:25:59;;;;;;;2.17;1.27;;;18.90;46.90;;;;;;5054621;28;20185;-91
2022/04/09 05:28:24;;;;;;;2.53;1.33;;;18.70;47.10;;;;;;5055245;28;20182;-91
2022/04/09 05:30:50;;;;;;;1.83;1.30;;;18.60;47.40;;;;;;5055267;28;20504;-91
2022/04/09 05:33:17;;;;;;;1.83;1.33;;;18.30;47.70;;;;;;5053653;28;20199;-91
2022/04/09 05:35:43;;;;;;;2.53;1.20;;;18.10;48.10;;;;;;5054386;28;20176;-91
2022/04/09 05:38:09;;;;;;;2.57;1.47;;;17.90;48.50;;;;;;5054035;28;20465;-90
2022/04/09 05:40:36;;;;;;;2.47;1.13;;;17.70;48.80;;;;;;5054120;28;20202;-90
2022/04/09 05:43:02;;;;;;;2.97;1.30;;;17.50;49.10;;;;;;5053346;28;20182;-90
2022/04/09 05:45:28;;;;;;;2.20;1.40;;;17.30;49.40;;;;;;5054521;28;20179;-91
2022/04/09 05:47:54;;;;;;;2.90;1.40;;;17.20;49.70;;;;;;5053696;28;20508;-91
2022/04/09 05:50:21;;;;;;;2.20;1.30;;;17.10;50.00;;;;;;5055005;28;20178;-92
2022/04/09 05:52:48;;;;;;;2.73;1.57;;;17.00;50.20;;;;;;5060152;28;20314;-92
2022/04/09 05:55:15;;;;;;;1.87;1.30;;;16.90;50.40;;;;;;5060848;28;20350;-93
2022/04/09 05:57:42;;;;;;;1.87;1.17;;;16.90;50.70;;;;;;5060170;28;20183;-92
2022/04/09 06:00:09;;;;;;;1.63;1.20;;;16.70;50.80;;;;;;5060651;28;20203;-93
2022/04/09 06:02:39;;;;;;;2.47;1.40;;;16.70;51.00;;;;;;5059053;28;20211;-93
2022/04/09 06:05:05;;;;;;;2.63;1.43;;;16.60;51.20;;;;;;5060476;28;20173;-93
2022/04/09 06:07:32;;;;;;;2.77;1.40;;;16.60;51.30;;;;;;5059350;28;20200;-92
2022/04/09 06:09:58;;;;;;;3.00;1.20;;;16.60;51.50;;;;;;5058760;28;20169;-93
2022/04/09 06:12:24;;;;;;;2.30;1.33;;;16.50;51.50;;;;;;5058806;28;20217;-93
2022/04/09 06:14:50;;;;;;;3.30;1.20;;;16.60;51.60;;;;;;5058546;28;20510;-92
2022/04/09 06:17:17;;;;;;;2.40;1.20;;;16.50;51.60;;;;;;5058501;28;20174;-93
2022/04/09 06:19:43;;;;;;;2.50;1.20;;;16.50;51.70;;;;;;5059304;28;20209;-93
2022/04/09 06:22:09;;;;;;;2.40;1.30;;;16.40;51.70;;;;;;5058842;28;20175;-93
2022/04/09 06:24:35;;;;;;;2.20;1.30;;;16.40;51.80;;;;;;5059007;28;20318;-93
2022/04/09 06:27:01;;;;;;;2.63;1.40;;;16.40;51.80;;;;;;5057716;28;20169;-93
2022/04/09 06:29:26;;;;;;;1.70;1.20;;;16.50;51.70;;;;;;5059619;28;20193;-94
2022/04/09 06:31:53;;;;;;;2.57;1.47;;;16.60;51.50;;;;;;5059456;28;20177;-93
2022/04/09 06:34:18;;;;;;;2.10;1.30;;;17.00;50.90;;;;;;5057778;28;20180;-93
2022/04/09 06:36:45;;;;;;;1.90;1.17;;;17.60;50.10;;;;;;5059594;28;20178;-93
2022/04/09 06:39:10;;;;;;;2.43;1.30;;;18.00;49.20;;;;;;5059011;28;20223;-92
2022/04/09 06:41:37;;;;;;;2.30;1.37;;;18.10;48.80;;;;;;5058698;28;20460;-93
2022/04/09 06:44:03;;;;;;;2.53;1.30;;;18.70;48.00;;;;;;5059667;28;20180;-94
2022/04/09 06:46:31;;;;;;;1.93;1.37;;;18.90;47.70;;;;;;5058700;28;20171;-93
2022/04/09 06:48:57;;;;;;;2.07;1.20;;;18.90;47.10;;;;;;5060873;28;20280;-93
2022/04/09 06:51:22;;;;;;;2.10;1.30;;;19.20;46.90;;;;;;5057983;28;20211;-93
2022/04/09 06:53:48;;;;;;;2.90;1.50;;;19.50;46.30;;;;;;5060075;28;20448;-93
2022/04/09 06:56:14;;;;;;;3.00;1.40;;;19.80;45.80;;;;;;5060429;28;20175;-94
2022/04/09 06:58:40;;;;;;;2.63;1.40;;;19.80;45.60;;;;;;5052688;28;20180;-92
2022/04/09 07:01:06;;;;;;;1.60;1.20;;;19.80;45.50;;;;;;5050539;28;20203;-91
2022/04/09 07:03:32;;;;;;;3.10;1.50;;;19.80;45.60;;;;;;5051171;28;20176;-92
2022/04/09 07:05:58;;;;;;;3.23;1.40;;;19.70;45.50;;;;;;5051398;28;20276;-92
2022/04/09 07:08:24;;;;;;;2.17;1.43;;;19.70;45.50;;;;;;5050660;28;20423;-92
2022/04/09 07:10:50;;;;;;;2.90;1.63;;;19.60;45.60;;;;;;5049745;28;20186;-92
2022/04/09 07:13:16;;;;;;;1.80;1.10;;;19.20;46.00;;;;;;5048909;28;20179;-92
2022/04/09 07:15:43;;;;;;;2.37;1.33;;;19.00;46.40;;;;;;5049606;28;20168;-92
2022/04/09 07:18:08;;;;;;;2.47;1.60;;;18.80;46.70;;;;;;5054116;28;20188;-91
2022/04/09 07:20:36;;;;;;;2.73;1.40;;;18.60;46.90;;;;;;5054245;28;20211;-92
2022/04/09 07:23:04;;;;;;;2.20;1.30;;;18.30;47.30;;;;;;5053020;28;20214;-92
2022/04/09 07:25:31;;;;;;;2.00;1.30;;;18.30;47.50;;;;;;5054227;28;20190;-91
2022/04/09 07:27:56;;;;;;;2.60;1.37;;;18.30;47.50;;;;;;5053356;28;20574;-92
2022/04/09 07:30:24;;;;;;;2.47;1.30;;;18.20;47.60;;;;;;5055284;28;20172;-91
2022/04/09 07:32:50;;;;;;;3.07;1.30;;;18.00;47.80;;;;;;5054039;28;20448;-91
2022/04/09 07:35:16;;;;;;;1.83;1.27;;;17.90;48.00;;;;;;5053684;28;20176;-91
2022/04/09 07:37:44;;;;;;;2.57;1.33;;;17.90;48.20;;;;;;5053338;28;20452;-91
2022/04/09 07:40:11;;;;;;;3.33;1.37;;;17.90;48.20;;;;;;5052639;28;20578;-91
2022/04/09 07:42:38;;;;;;;2.33;1.43;;;17.80;48.40;;;;;;5054608;28;20198;-91
2022/04/09 07:45:05;;;;;;;2.03;1.30;;;17.70;48.40;;;;;;5054410;28;20229;-91
2022/04/09 07:47:31;;;;;;;2.77;1.50;;;17.70;48.60;;;;;;5054590;28;20212;-90
2022/04/09 07:49:57;;;;;;;2.77;1.43;;;17.70;48.60;;;;;;5051966;28;20443;-91
2022/04/09 07:52:23;;;;;;;2.60;1.30;;;17.60;48.60;;;;;;5053309;28;20178;-91
2022/04/09 07:54:49;;;;;;;2.17;1.30;;;17.40;48.80;;;;;;5053222;28;20203;-90
2022/04/09 07:57:14;;;;;;;1.97;1.00;;;17.40;49.00;;;;;;5054250;28;20613;-91
2022/04/09 07:59:40;;;;;;;2.30;1.20;;;17.60;49.00;;;;;;5052752;28;20373;-91
2022/04/09 08:02:06;;;;;;;2.27;1.37;;;17.80;48.50;;;;;;5054623;28;20202;-92
2022/04/09 08:04:32;;;;;;;2.60;1.37;;;17.90;48.50;;;;;;5054817;28;20207;-91
2022/04/09 08:06:57;;;;;;;1.63;1.17;;;18.10;48.20;;;;;;5054962;28;20509;-91
2022/04/09 08:09:23;;;;;;;2.60;1.30;;;18.40;47.80;;;;;;5053523;28;20199;-91
2022/04/09 08:11:49;;;;;;;4.33;1.30;;;18.80;47.30;;;;;;5053014;28;20325;-91
2022/04/09 08:14:15;;;;;;;2.37;1.43;;;19.10;46.80;;;;;;5053099;28;20168;-90
2022/04/09 08:16:41;;;;;;;2.00;1.30;;;19.30;46.40;;;;;;5053434;28;20242;-90
2022/04/09 08:19:07;;;;;;;3.23;1.20;;;19.70;46.00;;;;;;5052676;28;20212;-91
2022/04/09 08:21:33;;;;;;;2.00;1.20;;;19.60;45.90;;;;;;5052987;28;20176;-91
2022/04/09 08:23:59;;;;;;;2.07;1.20;;;19.70;46.20;;;;;;5053149;28;20270;-91
2022/04/09 08:26:25;;;;;;;3.37;1.43;;;19.80;46.00;;;;;;5052696;28;20245;-91
2022/04/09 08:28:51;;;;;;;3.67;1.50;;;19.90;46.10;;;;;;5050565;28;20169;-91
2022/04/09 08:31:17;;;;;;;3.17;1.30;;;19.90;45.90;;;;;;5052302;28;20479;-91
2022/04/09 08:33:43;;;;;;;3.43;1.20;;;19.80;45.90;;;;;;5050787;28;20445;-91
2022/04/09 08:36:09;;;;;;;2.53;1.50;;;19.80;46.10;;;;;;5052703;28;20201;-90
2022/04/09 08:38:35;;;;;;;2.80;1.33;;;20.20;45.80;;;;;;5050635;28;20506;-91
2022/04/09 08:41:04;;;;;;;2.20;1.30;;;20.70;45.20;;;;;;5051665;28;20454;-90
2022/04/09 08:43:33;;;;;;;2.70;1.40;;;20.60;45.00;;;;;;5051807;28;20172;-90
2022/04/09 08:46:02;;;;;;;3.23;1.30;;;20.60;44.90;;;;;;5050719;28;20488;-90
2022/04/09 08:48:28;;;;;;;10.37;1.40;;;20.00;45.40;;;;;;5049912;28;20246;-90
2022/04/09 08:50:54;;;;;;;2.40;1.43;;;19.50;46.10;;;;;;5050428;28;20510;-90
2022/04/09 08:53:21;;;;;;;4.63;1.47;;;19.10;46.60;;;;;;5050698;28;20397;-91
2022/04/09 08:55:48;;;;;;;2.27;1.30;;;18.80;47.00;;;;;;5050642;28;20172;-91
2022/04/09 08:58:14;;;;;;;2.13;1.40;;;18.60;47.50;;;;;;5050637;28;20194;-90
2022/04/09 09:00:39;;;;;;;3.57;1.30;;;18.40;47.80;;;;;;5050141;28;20247;-91
2022/04/09 09:03:10;;;;;;;3.17;1.27;;;18.30;48.10;;;;;;5050923;28;20172;-90
2022/04/09 09:05:40;;;;;;;4.60;1.50;;;18.30;48.20;;;;;;5051238;28;20222;-91
2022/04/09 09:08:07;;;;;;;1.87;1.10;;;18.10;48.30;;;;;;5051051;28;20178;-93
2022/04/09 09:10:34;;;;;;;2.63;1.40;;;18.00;48.60;;;;;;5050943;28;20172;-91
2022/04/09 09:13:05;;;;;;;3.43;1.40;;;18.00;48.80;;;;;;5052270;28;20271;-91
2022/04/09 09:15:50;;;;;;;2.63;1.23;;;18.90;48.20;;;;;;5054054;28;20500;-91
2022/04/09 09:18:23;;;;;;;4.13;1.70;;;19.40;47.20;;;;;;5052742;28;20193;-91
2022/04/09 09:20:57;;;;;;;4.20;1.60;;;19.90;46.60;;;;;;5052239;28;20292;-91
2022/04/09 09:23:24;;;;;;;2.83;1.30;;;20.10;46.10;;;;;;5053570;28;20164;-91
2022/04/09 09:25:51;;;;;;;4.03;1.60;;;20.20;45.90;;;;;;5051811;28;20184;-92
2022/04/09 09:28:27;;;;;;;4.33;1.43;;;19.60;45.90;;;;;;5051380;28;20339;-91
2022/04/09 09:30:54;;;;;;;3.73;1.50;;;18.80;47.10;;;;;;5054375;28;20296;-91
2022/04/09 09:33:20;;;;;;;4.60;1.67;;;18.50;47.90;;;;;;5053168;28;20617;-91
2022/04/09 09:36:01;;;;;;;3.60;1.47;;;18.20;48.60;;;;;;5051087;28;20376;-91
2022/04/09 09:38:29;;;;;;;3.20;1.63;;;18.30;49.00;;;;;;5050851;28;20177;-90
2022/04/09 09:40:58;;;;;;;3.07;1.50;;;18.50;48.50;;;;;;5036507;28;20224;-92
2022/04/09 09:43:25;;;;;;;2.43;1.47;;;18.30;48.80;;;;;;5051134;28;20551;-92
2022/04/09 09:45:53;;;;;;;4.50;1.50;;;18.10;49.10;;;;;;5051765;28;20172;-90
2022/04/09 09:48:30;;;;;;;2.27;1.37;;;17.90;49.50;;;;;;5050539;28;20187;-91
2022/04/09 09:50:57;;;;;;;4.73;1.57;;;17.70;49.80;;;;;;5050496;28;20241;-91
2022/04/09 09:53:31;;;;;;;4.03;1.67;;;17.60;50.10;;;;;;5051167;28;20186;-92
2022/04/09 09:55:59;;;;;;;3.57;1.60;;;17.60;50.30;;;;;;5049877;28;20370;-92
2022/04/09 09:58:26;;;;;;;4.93;1.60;;;17.60;50.60;;;;;;5051233;28;20268;-91
2022/04/09 10:00:53;;;;;;;3.93;1.60;;;17.60;50.70;;;;;;5050510;28;20200;-91
2022/04/09 10:03:19;;;;;;;3.97;1.47;;;17.70;50.60;;;;;;5050585;28;20176;-92
2022/04/09 10:05:48;;;;;;;2.70;1.57;;;17.90;50.40;;;;;;5049831;28;20173;-91
2022/04/09 10:08:14;;;;;;;3.43;1.33;;;18.20;50.10;;;;;;5050006;28;20176;-92
2022/04/09 10:10:43;;;;;;;3.27;1.40;;;18.50;49.60;;;;;;5048697;28;20257;-91
2022/04/09 10:13:10;;;;;;;3.03;1.50;;;18.70;49.20;;;;;;5049281;28;20290;-92
2022/04/09 10:15:39;;;;;;;4.13;1.67;;;18.90;48.90;;;;;;5048919;28;20220;-91
2022/04/09 10:18:07;;;;;;;3.27;1.70;;;19.10;48.70;;;;;;5050270;28;20191;-92
2022/04/09 10:20:33;;;;;;;5.80;1.87;;;19.30;48.50;;;;;;5048701;28;20240;-91
2022/04/09 10:23:03;;;;;;;7.00;1.87;;;19.50;48.20;;;;;;5048695;28;20177;-91
2022/04/09 10:25:32;;;;;;;3.87;1.80;;;19.50;48.10;;;;;;5048097;28;20175;-91
2022/04/09 10:28:02;;;;;;;5.57;1.70;;;19.60;48.00;;;;;;5049346;28;20191;-91
2022/04/09 10:30:38;;;;;;;4.23;1.53;;;19.50;48.00;;;;;;5049660;28;20244;-91
2022/04/09 10:33:23;;;;;;;5.93;1.67;;;19.40;48.00;;;;;;5049488;28;20179;-92
2022/04/09 10:35:49;;;;;;;5.57;1.70;;;19.40;48.20;;;;;;5048597;28;20276;-92
2022/04/09 10:38:23;;;;;;;4.37;1.93;;;19.20;48.30;;;;;;5048598;28;20275;-90
2022/04/09 10:40:57;;;;;;;3.77;1.60;;;19.10;48.50;;;;;;5049060;28;20222;-91
2022/04/09 10:43:25;;;;;;;2.80;1.40;;;19.00;48.70;;;;;;5053003;28;20176;-92
2022/04/09 10:46:08;;;;;;;5.37;1.43;;;18.90;48.90;;;;;;5051912;28;20168;-91
2022/04/09 10:48:42;;;;;;;4.93;1.50;;;18.80;49.00;;;;;;5050356;28;20499;-92
2022/04/09 10:51:12;;;;;;;4.67;1.70;;;18.70;49.20;;;;;;5049161;28;20290;-92
2022/04/09 10:53:42;;;;;;;5.07;1.90;;;18.60;49.30;;;;;;5050302;28;20172;-92
2022/04/09 10:56:31;;;;;;;3.60;1.57;;;18.60;49.40;;;;;;5053147;28;20176;-93
2022/04/09 10:59:08;;;;;;;6.30;1.50;;;18.50;49.60;;;;;;5048883;28;20291;-91
2022/04/09 11:01:46;;;;;;;4.60;1.63;;;18.40;49.80;;;;;;5051336;28;20190;-91
2022/04/09 11:04:32;;;;;;;4.63;1.40;;;18.30;49.90;;;;;;5048427;28;20179;-91
2022/04/09 11:07:05;;;;;;;6.30;1.87;;;18.20;50.10;;;;;;5048667;28;20180;-91
2022/04/09 11:09:53;;;;;;;4.40;1.50;;;18.20;50.20;;;;;;5050722;28;20527;-90
2022/04/09 11:12:24;;;;;;;5.60;1.40;;;18.10;50.20;;;;;;5048229;28;20218;-91
2022/04/09 11:14:51;;;;;;;3.77;1.40;;;18.10;50.40;;;;;;5048442;28;20203;-91
2022/04/09 11:17:39;;;;;;;4.47;2.00;;;18.00;50.40;;;;;;5048727;28;20173;-91
2022/04/09 11:20:10;;;;;;;4.37;1.50;;;18.00;50.50;;;;;;5047649;28;20503;-92
2022/04/09 11:22:38;;;;;;;3.27;1.77;;;17.90;50.40;;;;;;5047395;28;20181;-91
2022/04/09 11:25:17;;;;;;;11.07;1.53;;;17.90;50.50;;;;;;5047477;28;20205;-92
2022/04/09 11:27:42;;;;;;;4.03;1.30;;;17.80;50.40;;;;;;5048150;28;20340;-92
2022/04/09 11:30:09;;;;;;;2.40;1.33;;;17.70;50.40;;;;;;5048615;28;20178;-91
2022/04/09 11:32:38;;;;;;;5.47;1.50;;;17.70;50.60;;;;;;5048176;28;20180;-91
2022/04/09 11:35:08;;;;;;;3.57;1.30;;;17.60;50.50;;;;;;5048865;28;20206;-91
2022/04/09 11:37:39;;;;;;;3.57;1.30;;;17.60;50.60;;;;;;5047948;28;20185;-92
2022/04/09 11:40:06;;;;;;;3.63;1.40;;;17.50;50.70;;;;;;5048785;28;20306;-92
2022/04/09 11:42:50;;;;;;;4.63;1.40;;;17.50;50.70;;;;;;5048843;28;20197;-92
2022/04/09 11:45:27;;;;;;;2.50;1.20;;;17.50;50.80;;;;;;5049787;28;20372;-92
2022/04/09 11:47:58;;;;;;;3.30;1.10;;;17.40;50.90;;;;;;5048417;28;20178;-93
2022/04/09 11:50:25;;;;;;;1.80;1.10;;;17.40;51.00;;;;;;5054144;28;20193;-93
2022/04/09 11:52:52;;;;;;;3.27;1.40;;;17.30;51.10;;;;;;5058634;28;20185;-92
2022/04/09 11:55:18;;;;;;;3.47;1.20;;;17.30;51.10;;;;;;5053312;28;20232;-93
2022/04/09 11:57:51;;;;;;;3.17;1.20;;;17.30;51.20;;;;;;5054273;28;20493;-93
2022/04/09 12:00:20;;;;;;;1.87;1.00;;;17.40;51.20;;;;;;5054890;28;20203;-92
2022/04/09 12:02:46;;;;;;;1.83;1.17;;;17.40;51.30;;;;;;5051907;28;20633;-93
2022/04/09 12:05:12;;;;;;;2.07;1.00;;;17.40;51.30;;;;;;5055081;28;20294;-93
2022/04/09 12:07:46;;;;;;;2.97;1.17;;;17.40;51.20;;;;;;5057101;28;20237;-93
2022/04/09 12:10:50;;;;;;;3.37;1.00;;;17.50;51.20;;;;;;5054715;28;20594;-93
2022/04/09 12:13:30;;;;;;;2.10;1.07;;;17.50;51.10;;;;;;5046885;28;20532;-93
2022/04/09 12:16:15;;;;;;;1.37;0.90;;;17.60;51.00;;;;;;5053904;28;20209;-93
2022/04/09 12:18:42;;;;;;;2.83;1.27;;;17.50;51.10;;;;;;5052947;28;20200;-93
2022/04/09 12:21:28;;;;;;;2.27;1.27;;;17.50;51.20;;;;;;5056092;28;20583;-93
2022/04/09 12:24:05;;;;;;;1.50;1.00;;;17.50;51.30;;;;;;5054206;28;20458;-93
2022/04/09 12:26:32;;;;;;;1.57;0.93;;;17.50;51.40;;;;;;5055847;28;20180;-92
2022/04/09 12:29:12;;;;;;;2.13;1.00;;;17.40;51.40;;;;;;5055743;28;20172;-93
2022/04/09 12:31:42;;;;;;;1.63;1.03;;;17.40;51.60;;;;;;5056151;28;20167;-93
2022/04/09 12:34:09;;;;;;;1.97;1.00;;;17.40;51.60;;;;;;5055957;28;20228;-92
2022/04/09 12:36:36;;;;;;;2.40;0.97;;;17.40;51.60;;;;;;5056649;28;20165;-93
2022/04/09 12:39:24;;;;;;;2.10;0.90;;;17.40;51.60;;;;;;5053749;28;20174;-92
2022/04/09 12:41:50;;;;;;;2.23;0.97;;;17.40;51.60;;;;;;5055096;28;20192;-93
2022/04/09 12:44:36;;;;;;;2.40;0.93;;;17.40;51.60;;;;;;5057854;28;20271;-93
2022/04/09 12:47:06;;;;;;;1.43;0.90;;;17.40;51.60;;;;;;5056719;28;20186;-93
2022/04/09 12:49:35;;;;;;;1.97;0.90;;;17.50;51.50;;;;;;5056321;28;20478;-93
2022/04/09 12:52:03;;;;;;;1.73;1.00;;;17.50;51.40;;;;;;5053788;28;20481;-93